Time;durP1;ratioP1;P1;durP2;ratioP2;P2;SDS_P1;SDS_P2;PMS_P1;PMS_P2;Temp;Humidity;BMP_temperature;BMP_pressure;BME280_temperature;BME280_humidity;BME280_pressure;Samples;Min_cycle;Max_cycle;Signal;HPM_P1;HPM_P2
2023/09/30 00:02:00;;;;;;;;;;;;;;;;;;5037180;28;19920;-81
2023/09/30 00:04:27;;;;;;;;;;;;;;;;;;5072911;28;19920;-81
2023/09/30 00:06:52;;;;;;;;;;;;;;;;;;5071447;28;19912;-81
2023/09/30 00:09:18;;;;;;;;;;;;;;;;;;5054018;28;19982;-81
2023/09/30 00:11:43;;;;;;;;;;;;;;;;;;5090556;28;19912;-81
2023/09/30 00:14:08;;;;;;;;;;;;;;;;;;5056209;28;20410;-81
2023/09/30 00:16:34;;;;;;;;;;;;;;;;;;5073276;28;19920;-81
2023/09/30 00:19:00;;;;;;;;;;;;;;;;;;5072617;28;19940;-81
2023/09/30 00:21:26;;;;;;;;;;;;;;;;;;5072304;28;19998;-81
2023/09/30 00:23:51;;;;;;;;;;;;;;;;;;5072941;28;20443;-81
2023/09/30 00:26:16;;;;;;;;;;;;;;;;;;5082750;28;19923;-81
2023/09/30 00:28:45;;;;;;;;;;;;;;;;;;5086089;28;19916;-82
2023/09/30 00:31:10;;;;;;;;;;;;;;;;;;5080650;28;20706;-81
2023/09/30 00:33:36;;;;;;;;;;;;;;;;;;5079693;28;20039;-81
2023/09/30 00:36:01;;;;;;;;;;;;;;;;;;5082886;28;19913;-82
2023/09/30 00:38:26;;;;;;;;;;;;;;;;;;5060184;28;20406;-80
2023/09/30 00:40:53;;;;;;;;;;;;;;;;;;5049925;28;19940;-81
2023/09/30 00:43:18;;;;;;;;;;;;;;;;;;5064279;28;20013;-81
2023/09/30 00:45:43;;;;;;;;;;;;;;;;;;5053334;28;19951;-81
2023/09/30 00:48:09;;;;;;;;;;;;;;;;;;5062732;28;20413;-81
2023/09/30 00:50:34;;;;;;;;;;;;;;;;;;5051549;28;20425;-81
2023/09/30 00:52:59;;;;;;;;;;;;;;;;;;5077557;28;19916;-81
2023/09/30 00:55:25;;;;;;;;;;;;;;;;;;5082696;28;19916;-81
2023/09/30 00:57:50;;;;;;;;;;;;;;;;;;5076473;28;19952;-81
2023/09/30 01:00:15;;;;;;;;;;;;;;;;;;5082950;28;19962;-81
2023/09/30 01:02:41;;;;;;;;;;;;;;;;;;5058906;28;19917;-81
2023/09/30 01:05:07;;;;;;;;;;;;;;;;;;5056272;28;19920;-80
2023/09/30 01:07:32;;;;;;;;;;;;;;;;;;5058657;28;20382;-81
2023/09/30 01:09:58;;;;;;;;;;;;;;;;;;5055464;28;20402;-81
2023/09/30 01:12:23;;;;;;;;;;;;;;;;;;5068783;28;19916;-81
2023/09/30 01:14:48;;;;;;;;;;;;;;;;;;5053137;28;19912;-80
2023/09/30 01:17:15;;;;;;;;;;;;;;;;;;5053558;28;19938;-81
2023/09/30 01:19:42;;;;;;;;;;;;;;;;;;5079231;28;19944;-81
2023/09/30 01:22:09;;;;;;;;;;;;;;;;;;5077761;28;19924;-81
2023/09/30 01:24:34;;;;;;;;;;;;;;;;;;5079126;28;19969;-81
2023/09/30 01:27:00;;;;;;;;;;;;;;;;;;5058972;28;19920;-81
2023/09/30 01:29:26;;;;;;;;;;;;;;;;;;5043965;28;19920;-81
2023/09/30 01:31:51;;;;;;;;;;;;;;;;;;5059009;28;19983;-82
2023/09/30 01:34:16;;;;;;;;;;;;;;;;;;5054021;28;20314;-81
2023/09/30 01:36:42;;;;;;;;;;;;;;;;;;5077420;28;19966;-80
2023/09/30 01:39:10;;;;;;;;;;;;;;;;;;5071096;28;19912;-81
2023/09/30 01:41:35;;;;;;;;;;;;;;;;;;5077094;28;20011;-80
2023/09/30 01:44:01;;;;;;;;;;;;;;;;;;5079007;28;20067;-81
2023/09/30 01:46:26;;;;;;;;;;;;;;;;;;5053278;28;19921;-81
2023/09/30 01:48:51;;;;;;;;;;;;;;;;;;5071874;28;19913;-81
2023/09/30 01:51:17;;;;;;;;;;;;;;;;;;5056321;28;20278;-81
2023/09/30 01:53:43;;;;;;;;;;;;;;;;;;5055360;28;19943;-81
2023/09/30 01:56:08;;;;;;;;;;;;;;;;;;5058525;28;19916;-81
2023/09/30 01:58:33;;;;;;;;;;;;;;;;;;5057239;28;20399;-81
2023/09/30 02:00:59;;;;;;;;;;;;;;;;;;5041344;28;19917;-81
2023/09/30 02:03:24;;;;;;;;;;;;;;;;;;5041703;28;19913;-81
2023/09/30 02:05:50;;;;;;;;;;;;;;;;;;5074630;28;20007;-81
2023/09/30 02:08:15;;;;;;;;;;;;;;;;;;5055923;28;19912;-80
2023/09/30 02:10:43;;;;;;;;;;;;;;;;;;5055616;28;20008;-81
2023/09/30 02:13:09;;;;;;;;;;;;;;;;;;5058096;28;20007;-80
2023/09/30 02:15:34;;;;;;;;;;;;;;;;;;5046544;28;19924;-81
2023/09/30 02:18:00;;;;;;;;;;;;;;;;;;5079668;28;19913;-81
2023/09/30 02:20:25;;;;;;;;;;;;;;;;;;5057596;28;19916;-81
2023/09/30 02:22:51;;;;;;;;;;;;;;;;;;5057350;28;19913;-81
2023/09/30 02:25:16;;;;;;;;;;;;;;;;;;5076875;28;20303;-81
2023/09/30 02:27:41;;;;;;;;;;;;;;;;;;5074645;28;20647;-81
2023/09/30 02:30:07;;;;;;;;;;;;;;;;;;5058151;28;19921;-80
2023/09/30 02:32:33;;;;;;;;;;;;;;;;;;5083895;28;19919;-80
2023/09/30 02:34:58;;;;;;;;;;;;;;;;;;5090030;28;19927;-81
2023/09/30 02:37:24;;;;;;;;;;;;;;;;;;5057694;28;19913;-81
2023/09/30 02:39:49;;;;;;;;;;;;;;;;;;5080361;28;19969;-81
2023/09/30 02:42:15;;;;;;;;;;;;;;;;;;5058685;28;19920;-80
2023/09/30 02:44:40;;;;;;;;;;;;;;;;;;5083618;28;19916;-81
2023/09/30 02:47:05;;;;;;;;;;;;;;;;;;5077726;28;20241;-81
2023/09/30 02:49:31;;;;;;;;;;;;;;;;;;5064990;28;19960;-80
2023/09/30 02:51:56;;;;;;;;;;;;;;;;;;5083978;28;19916;-80
2023/09/30 02:54:21;;;;;;;;;;;;;;;;;;5082679;28;19932;-80
2023/09/30 02:56:47;;;;;;;;;;;;;;;;;;5073572;28;19923;-81
2023/09/30 02:59:12;;;;;;;;;;;;;;;;;;5055120;28;20658;-80
2023/09/30 03:01:37;;;;;;;;;;;;;;;;;;5073025;28;19923;-80
2023/09/30 03:04:06;;;;;;;;;;;;;;;;;;5055207;28;19920;-80
2023/09/30 03:06:32;;;;;;;;;;;;;;;;;;5046868;28;19916;-80
2023/09/30 03:08:57;;;;;;;;;;;;;;;;;;5082095;28;19962;-80
2023/09/30 03:11:22;;;;;;;;;;;;;;;;;;5080849;28;19959;-80
2023/09/30 03:13:50;;;;;;;;;;;;;;;;;;5079242;28;19943;-80
2023/09/30 03:16:15;;;;;;;;;;;;;;;;;;5055252;28;20367;-80
2023/09/30 03:18:44;;;;;;;;;;;;;;;;;;5079918;28;20007;-80
2023/09/30 03:21:09;;;;;;;;;;;;;;;;;;5072254;28;19920;-80
2023/09/30 03:23:35;;;;;;;;;;;;;;;;;;5083153;28;19920;-79
2023/09/30 03:26:00;;;;;;;;;;;;;;;;;;5057267;28;20330;-80
2023/09/30 03:28:25;;;;;;;;;;;;;;;;;;5044366;28;19916;-80
2023/09/30 03:30:51;;;;;;;;;;;;;;;;;;5074625;28;19913;-81
2023/09/30 03:33:17;;;;;;;;;;;;;;;;;;5078693;28;19943;-80
2023/09/30 03:35:42;;;;;;;;;;;;;;;;;;5078981;28;19920;-80
2023/09/30 03:38:09;;;;;;;;;;;;;;;;;;5054655;28;19916;-80
2023/09/30 03:40:38;;;;;;;;;;;;;;;;;;5054190;28;19920;-81
2023/09/30 03:43:05;;;;;;;;;;;;;;;;;;5072735;28;20054;-81
2023/09/30 03:45:32;;;;;;;;;;;;;;;;;;5054070;28;19913;-80
2023/09/30 03:47:57;;;;;;;;;;;;;;;;;;5080746;28;19969;-80
2023/09/30 03:50:24;;;;;;;;;;;;;;;;;;5071819;28;20362;-81
2023/09/30 03:52:49;;;;;;;;;;;;;;;;;;5057819;28;20030;-81
2023/09/30 03:55:17;;;;;;;;;;;;;;;;;;5074861;28;20023;-78
2023/09/30 03:57:45;;;;;;;;;;;;;;;;;;5081626;28;19939;-79
2023/09/30 04:00:18;;;;;;;;;;;;;;;;;;5079931;28;19920;-80
2023/09/30 04:02:48;;;;;;;;;;;;;;;;;;5077526;28;19973;-80
2023/09/30 04:05:14;;;;;;;;;;;;;;;;;;5055071;28;19916;-80
2023/09/30 04:07:39;;;;;;;;;;;;;;;;;;5071475;28;19917;-80
2023/09/30 04:10:04;;;;;;;;;;;;;;;;;;5054469;28;19963;-79
2023/09/30 04:12:32;;;;;;;;;;;;;;;;;;5079569;28;20463;-80
2023/09/30 04:14:58;;;;;;;;;;;;;;;;;;5073038;28;19927;-80
2023/09/30 04:17:23;;;;;;;;;;;;;;;;;;5052572;28;19917;-79
2023/09/30 04:19:51;;;;;;;;;;;;;;;;;;5071480;28;19916;-81
2023/09/30 04:22:17;;;;;;;;;;;;;;;;;;5055486;28;20440;-80
2023/09/30 04:24:42;;;;;;;;;;;;;;;;;;5054652;28;20019;-80
2023/09/30 04:27:07;;;;;;;;;;;;;;;;;;5053969;28;20338;-79
2023/09/30 04:29:33;;;;;;;;;;;;;;;;;;5075691;28;20441;-80
2023/09/30 04:31:58;;;;;;;;;;;;;;;;;;5053782;28;20405;-80
2023/09/30 04:34:24;;;;;;;;;;;;;;;;;;5053433;28;19917;-80
2023/09/30 04:36:49;;;;;;;;;;;;;;;;;;5071246;28;19916;-80
2023/09/30 04:39:15;;;;;;;;;;;;;;;;;;5053127;28;20379;-80
2023/09/30 04:41:44;;;;;;;;;;;;;;;;;;5071757;28;19924;-80
2023/09/30 04:44:09;;;;;;;;;;;;;;;;;;5076151;28;20308;-80
2023/09/30 04:46:35;;;;;;;;;;;;;;;;;;5079420;28;19916;-80
2023/09/30 04:49:02;;;;;;;;;;;;;;;;;;5075360;28;19912;-80
2023/09/30 04:51:27;;;;;;;;;;;;;;;;;;5073861;28;19927;-80
2023/09/30 04:53:54;;;;;;;;;;;;;;;;;;5055948;28;20379;-80
2023/09/30 04:56:20;;;;;;;;;;;;;;;;;;5081164;28;19916;-80
2023/09/30 04:58:46;;;;;;;;;;;;;;;;;;5053668;28;19919;-81
2023/09/30 05:01:12;;;;;;;;;;;;;;;;;;5084603;28;20011;-80
2023/09/30 05:03:37;;;;;;;;;;;;;;;;;;5079114;28;20011;-80
2023/09/30 05:06:03;;;;;;;;;;;;;;;;;;5066386;28;19916;-80
2023/09/30 05:08:28;;;;;;;;;;;;;;;;;;5054638;28;19912;-80
2023/09/30 05:10:55;;;;;;;;;;;;;;;;;;5076855;28;19916;-81
2023/09/30 05:13:20;;;;;;;;;;;;;;;;;;5070820;28;19947;-81
2023/09/30 05:15:46;;;;;;;;;;;;;;;;;;5053288;28;20402;-81
2023/09/30 05:18:11;;;;;;;;;;;;;;;;;;5071054;28;19912;-81
2023/09/30 05:20:38;;;;;;;;;;;;;;;;;;5071199;28;19924;-81
2023/09/30 05:23:04;;;;;;;;;;;;;;;;;;5051222;28;19912;-81
2023/09/30 05:25:29;;;;;;;;;;;;;;;;;;5079176;28;19916;-81
2023/09/30 05:27:54;;;;;;;;;;;;;;;;;;5071552;28;19913;-81
2023/09/30 05:30:20;;;;;;;;;;;;;;;;;;5057030;28;20018;-81
2023/09/30 05:32:46;;;;;;;;;;;;;;;;;;5059830;28;19912;-81
2023/09/30 05:35:12;;;;;;;;;;;;;;;;;;5078887;28;19920;-81
2023/09/30 05:37:38;;;;;;;;;;;;;;;;;;5074913;28;19962;-81
2023/09/30 05:40:09;;;;;;;;;;;;;;;;;;5058129;28;19931;-81
2023/09/30 05:42:35;;;;;;;;;;;;;;;;;;5080071;28;19920;-81
2023/09/30 05:45:01;;;;;;;;;;;;;;;;;;5093958;28;19954;-80
2023/09/30 05:47:26;;;;;;;;;;;;;;;;;;5078163;28;19959;-80
2023/09/30 05:49:51;;;;;;;;;;;;;;;;;;5064004;28;19920;-80
2023/09/30 05:52:17;;;;;;;;;;;;;;;;;;5079820;28;19978;-79
2023/09/30 05:54:42;;;;;;;;;;;;;;;;;;5055660;28;20011;-79
2023/09/30 05:57:08;;;;;;;;;;;;;;;;;;5041243;28;19916;-82
2023/09/30 05:59:34;;;;;;;;;;;;;;;;;;5056702;28;19967;-82
2023/09/30 06:01:59;;;;;;;;;;;;;;;;;;5076526;28;19920;-82
2023/09/30 06:04:24;;;;;;;;;;;;;;;;;;5075064;28;19956;-81
2023/09/30 06:06:50;;;;;;;;;;;;;;;;;;5068715;28;19959;-81
2023/09/30 06:09:16;;;;;;;;;;;;;;;;;;5056700;28;19912;-81
2023/09/30 06:11:41;;;;;;;;;;;;;;;;;;5077921;28;19923;-84
2023/09/30 06:14:07;;;;;;;;;;;;;;;;;;5081209;28;20312;-85
2023/09/30 06:16:32;;;;;;;;;;;;;;;;;;5060600;28;20321;-85
2023/09/30 06:18:57;;;;;;;;;;;;;;;;;;5077666;28;20006;-84
2023/09/30 06:21:24;;;;;;;;;;;;;;;;;;5057281;28;19917;-85
2023/09/30 06:23:51;;;;;;;;;;;;;;;;;;5079368;28;19913;-84
2023/09/30 06:26:17;;;;;;;;;;;;;;;;;;5073443;28;19927;-84
2023/09/30 06:28:42;;;;;;;;;;;;;;;;;;5076727;28;20260;-84
2023/09/30 06:31:07;;;;;;;;;;;;;;;;;;5056527;28;19944;-85
2023/09/30 06:33:33;;;;;;;;;;;;;;;;;;5076723;28;19916;-85
2023/09/30 06:36:01;;;;;;;;;;;;;;;;;;5075997;28;19923;-84
2023/09/30 06:38:27;;;;;;;;;;;;;;;;;;5057005;28;19920;-84
2023/09/30 06:40:53;;;;;;;;;;;;;;;;;;5074773;28;19947;-85
2023/09/30 06:43:19;;;;;;;;;;;;;;;;;;5087563;28;20378;-83
2023/09/30 06:45:46;;;;;;;;;;;;;;;;;;5056313;28;19922;-85
2023/09/30 06:48:12;;;;;;;;;;;;;;;;;;5051401;28;20282;-84
2023/09/30 06:50:37;;;;;;;;;;;;;;;;;;5056184;28;19959;-82
2023/09/30 06:53:05;;;;;;;;;;;;;;;;;;5074890;28;19912;-83
2023/09/30 06:55:31;;;;;;;;;;;;;;;;;;5055814;28;20516;-85
2023/09/30 06:57:57;;;;;;;;;;;;;;;;;;5081838;28;19916;-82
2023/09/30 07:00:22;;;;;;;;;;;;;;;;;;5069380;28;20325;-83
2023/09/30 07:02:47;;;;;;;;;;;;;;;;;;5055067;28;19920;-84
2023/09/30 07:05:13;;;;;;;;;;;;;;;;;;5055335;28;19916;-84
2023/09/30 07:07:39;;;;;;;;;;;;;;;;;;5075086;28;20378;-84
2023/09/30 07:10:04;;;;;;;;;;;;;;;;;;5075261;28;20077;-84
2023/09/30 07:12:31;;;;;;;;;;;;;;;;;;5080610;28;19995;-84
2023/09/30 07:14:57;;;;;;;;;;;;;;;;;;5082410;28;20010;-83
2023/09/30 07:17:22;;;;;;;;;;;;;;;;;;5084846;28;19948;-84
2023/09/30 07:19:48;;;;;;;;;;;;;;;;;;5053212;28;20461;-84
2023/09/30 07:22:13;;;;;;;;;;;;;;;;;;5055841;28;19912;-83
2023/09/30 07:24:39;;;;;;;;;;;;;;;;;;5076820;28;19923;-85
2023/09/30 07:27:04;;;;;;;;;;;;;;;;;;5077407;28;20383;-82
2023/09/30 07:29:30;;;;;;;;;;;;;;;;;;5074402;28;19920;-83
2023/09/30 07:31:55;;;;;;;;;;;;;;;;;;5081464;28;19912;-82
2023/09/30 07:34:21;;;;;;;;;;;;;;;;;;5073553;28;20432;-83
2023/09/30 07:36:46;;;;;;;;;;;;;;;;;;5054660;28;19916;-83
2023/09/30 07:39:11;;;;;;;;;;;;;;;;;;5075528;28;20786;-82
2023/09/30 07:41:36;;;;;;;;;;;;;;;;;;5054778;28;19928;-83
2023/09/30 07:44:02;;;;;;;;;;;;;;;;;;5041483;28;19985;-83
2023/09/30 07:46:28;;;;;;;;;;;;;;;;;;5053969;28;19920;-83
2023/09/30 07:48:55;;;;;;;;;;;;;;;;;;5074231;28;19916;-82
2023/09/30 07:51:20;;;;;;;;;;;;;;;;;;5053460;28;19912;-84
2023/09/30 07:53:45;;;;;;;;;;;;;;;;;;5055295;28;19924;-84
2023/09/30 07:56:11;;;;;;;;;;;;;;;;;;5071956;28;20268;-82
2023/09/30 07:58:36;;;;;;;;;;;;;;;;;;5070809;28;20002;-79
2023/09/30 08:01:04;;;;;;;;;;;;;;;;;;5063477;28;20376;-78
2023/09/30 08:03:29;;;;;;;;;;;;;;;;;;5071000;28;19931;-79
2023/09/30 08:05:54;;;;;;;;;;;;;;;;;;5091098;28;20371;-79
2023/09/30 08:08:20;;;;;;;;;;;;;;;;;;5058031;28;19966;-78
2023/09/30 08:10:45;;;;;;;;;;;;;;;;;;5080617;28;19967;-80
2023/09/30 08:13:10;;;;;;;;;;;;;;;;;;5057368;28;20027;-79
2023/09/30 08:15:36;;;;;;;;;;;;;;;;;;5078355;28;19916;-80
2023/09/30 08:18:04;;;;;;;;;;;;;;;;;;5066210;28;19916;-82
2023/09/30 08:20:29;;;;;;;;;;;;;;;;;;5069366;28;19913;-80
2023/09/30 08:22:54;;;;;;;;;;;;;;;;;;5057202;28;19924;-80
2023/09/30 08:25:20;;;;;;;;;;;;;;;;;;5079193;28;20264;-79
2023/09/30 08:27:49;;;;;;;;;;;;;;;;;;5058061;28;19939;-81
2023/09/30 08:30:14;;;;;;;;;;;;;;;;;;5076721;28;20340;-79
2023/09/30 08:32:40;;;;;;;;;;;;;;;;;;5074156;28;19916;-78
2023/09/30 08:35:05;;;;;;;;;;;;;;;;;;5074899;28;20375;-78
2023/09/30 08:37:31;;;;;;;;;;;;;;;;;;5073795;28;19917;-78
2023/09/30 08:39:56;;;;;;;;;;;;;;;;;;5073641;28;19916;-78
2023/09/30 08:42:22;;;;;;;;;;;;;;;;;;5076512;28;19924;-79
2023/09/30 08:44:47;;;;;;;;;;;;;;;;;;5091364;28;20354;-79
2023/09/30 08:47:12;;;;;;;;;;;;;;;;;;5056207;28;20403;-79
2023/09/30 08:49:39;;;;;;;;;;;;;;;;;;5072695;28;20379;-79
2023/09/30 08:52:04;;;;;;;;;;;;;;;;;;5085558;28;20026;-79
2023/09/30 08:54:29;;;;;;;;;;;;;;;;;;5088386;28;20014;-79
2023/09/30 08:56:55;;;;;;;;;;;;;;;;;;5085297;28;19916;-79
2023/09/30 08:59:20;;;;;;;;;;;;;;;;;;5080140;28;19916;-79
2023/09/30 09:01:45;;;;;;;;;;;;;;;;;;5083465;28;19923;-79
2023/09/30 09:04:11;;;;;;;;;;;;;;;;;;5063789;28;20459;-79
2023/09/30 09:06:36;;;;;;;;;;;;;;;;;;5081002;28;19978;-79
2023/09/30 09:09:01;;;;;;;;;;;;;;;;;;5089447;28;19919;-79
2023/09/30 09:11:27;;;;;;;;;;;;;;;;;;5083132;28;19921;-79
2023/09/30 09:13:53;;;;;;;;;;;;;;;;;;5070912;28;20341;-79
2023/09/30 09:16:18;;;;;;;;;;;;;;;;;;5077991;28;19923;-79
2023/09/30 09:18:44;;;;;;;;;;;;;;;;;;5058048;28;19917;-79
2023/09/30 09:21:10;;;;;;;;;;;;;;;;;;5085171;28;19917;-80
2023/09/30 09:23:35;;;;;;;;;;;;;;;;;;5088499;28;19958;-79
2023/09/30 09:26:00;;;;;;;;;;;;;;;;;;5079976;28;19923;-81
2023/09/30 09:28:26;;;;;;;;;;;;;;;;;;5054192;28;20364;-81
2023/09/30 09:30:51;;;;;;;;;;;;;;;;;;5055858;28;19912;-83
2023/09/30 09:33:16;;;;;;;;;;;;;;;;;;5075158;28;20379;-82
2023/09/30 09:35:42;;;;;;;;;;;;;;;;;;5080010;28;20406;-81
2023/09/30 09:38:07;;;;;;;;;;;;;;;;;;5085486;28;19919;-81
2023/09/30 09:40:32;;;;;;;;;;;;;;;;;;5079399;28;19920;-81
2023/09/30 09:42:58;;;;;;;;;;;;;;;;;;5058163;28;19916;-81
2023/09/30 09:45:24;;;;;;;;;;;;;;;;;;5090202;28;19916;-81
2023/09/30 09:47:49;;;;;;;;;;;;;;;;;;5094834;28;19919;-81
2023/09/30 09:50:15;;;;;;;;;;;;;;;;;;5063248;28;20280;-81
2023/09/30 09:52:40;;;;;;;;;;;;;;;;;;5080251;28;19927;-81
2023/09/30 09:55:06;;;;;;;;;;;;;;;;;;5088026;28;20035;-81
2023/09/30 09:57:31;;;;;;;;;;;;;;;;;;5086282;28;20017;-81
2023/09/30 09:59:57;;;;;;;;;;;;;;;;;;5086275;28;19948;-80
2023/09/30 10:02:22;;;;;;;;;;;;;;;;;;5082943;28;19912;-81
2023/09/30 10:04:48;;;;;;;;;;;;;;;;;;5089637;28;20275;-81
2023/09/30 10:07:14;;;;;;;;;;;;;;;;;;5068769;28;20300;-82
2023/09/30 10:09:39;;;;;;;;;;;;;;;;;;5086571;28;19924;-81
2023/09/30 10:12:04;;;;;;;;;;;;;;;;;;5089487;28;20376;-82
2023/09/30 10:14:30;;;;;;;;;;;;;;;;;;5057611;28;20018;-81
2023/09/30 10:16:55;;;;;;;;;;;;;;;;;;5089148;28;20386;-81
2023/09/30 10:19:22;;;;;;;;;;;;;;;;;;5088438;28;19921;-81
2023/09/30 10:21:47;;;;;;;;;;;;;;;;;;5084278;28;19916;-81
2023/09/30 10:24:13;;;;;;;;;;;;;;;;;;5082537;28;19916;-81
2023/09/30 10:26:38;;;;;;;;;;;;;;;;;;5078164;28;20010;-81
2023/09/30 10:29:03;;;;;;;;;;;;;;;;;;5061774;28;19939;-81
2023/09/30 10:31:30;;;;;;;;;;;;;;;;;;5080111;28;20283;-81
2023/09/30 10:33:56;;;;;;;;;;;;;;;;;;5082970;28;19925;-81
2023/09/30 10:36:21;;;;;;;;;;;;;;;;;;5079257;28;19923;-81
2023/09/30 10:38:49;;;;;;;;;;;;;;;;;;5082936;28;19912;-81
2023/09/30 10:41:14;;;;;;;;;;;;;;;;;;5065664;28;19924;-82
2023/09/30 10:43:40;;;;;;;;;;;;;;;;;;5069533;28;20267;-82
2023/09/30 10:46:07;;;;;;;;;;;;;;;;;;5074672;28;20274;-80
2023/09/30 10:48:32;;;;;;;;;;;;;;;;;;5024941;28;19920;-81
2023/09/30 10:51:00;;;;;;;;;;;;;;;;;;5041829;28;19917;-81
2023/09/30 10:53:27;;;;;;;;;;;;;;;;;;5065194;28;20275;-81
2023/09/30 10:55:52;;;;;;;;;;;;;;;;;;5066904;28;19916;-80
2023/09/30 10:58:17;;;;;;;;;;;;;;;;;;5050809;28;19963;-79
2023/09/30 11:00:43;;;;;;;;;;;;;;;;;;5071922;28;20383;-82
2023/09/30 11:03:08;;;;;;;;;;;;;;;;;;5069446;28;19912;-82
2023/09/30 11:05:34;;;;;;;;;;;;;;;;;;5053488;28;20407;-81
2023/09/30 11:07:59;;;;;;;;;;;;;;;;;;5040574;28;19913;-81
2023/09/30 11:10:24;;;;;;;;;;;;;;;;;;5070132;28;20058;-80
2023/09/30 11:12:50;;;;;;;;;;;;;;;;;;5069402;28;19943;-80
2023/09/30 11:15:15;;;;;;;;;;;;;;;;;;5070797;28;19921;-81
2023/09/30 11:17:41;;;;;;;;;;;;;;;;;;5051544;28;20003;-81
2023/09/30 11:20:06;;;;;;;;;;;;;;;;;;5069911;28;20020;-81
2023/09/30 11:22:31;;;;;;;;;;;;;;;;;;5050897;28;19960;-82
2023/09/30 11:24:57;;;;;;;;;;;;;;;;;;5020079;28;19921;-81
2023/09/30 11:27:24;;;;;;;;;;;;;;;;;;5063623;28;19913;-81
2023/09/30 11:29:49;;;;;;;;;;;;;;;;;;5070447;28;19916;-81
2023/09/30 11:32:15;;;;;;;;;;;;;;;;;;5058842;28;20410;-81
2023/09/30 11:34:41;;;;;;;;;;;;;;;;;;5052154;28;19974;-80
2023/09/30 11:37:07;;;;;;;;;;;;;;;;;;5051137;28;20307;-80
2023/09/30 11:39:32;;;;;;;;;;;;;;;;;;5069049;28;19917;-81
2023/09/30 11:41:58;;;;;;;;;;;;;;;;;;5058516;28;19920;-81
2023/09/30 11:44:23;;;;;;;;;;;;;;;;;;5054449;28;20326;-81
2023/09/30 11:46:49;;;;;;;;;;;;;;;;;;5053850;28;20050;-81
2023/09/30 11:49:15;;;;;;;;;;;;;;;;;;5053644;28;20478;-81
2023/09/30 11:51:40;;;;;;;;;;;;;;;;;;5056188;28;20008;-81
2023/09/30 11:54:06;;;;;;;;;;;;;;;;;;5020589;28;19970;-81
2023/09/30 11:56:31;;;;;;;;;;;;;;;;;;5035488;28;19920;-81
2023/09/30 11:58:57;;;;;;;;;;;;;;;;;;5057261;28;20318;-82
2023/09/30 12:01:22;;;;;;;;;;;;;;;;;;5041301;28;20375;-79
2023/09/30 12:03:47;;;;;;;;;;;;;;;;;;5038655;28;19917;-82
2023/09/30 12:06:13;;;;;;;;;;;;;;;;;;5067445;28;19954;-80
2023/09/30 12:08:38;;;;;;;;;;;;;;;;;;5063045;28;19917;-83
2023/09/30 12:11:04;;;;;;;;;;;;;;;;;;5060500;28;19917;-82
2023/09/30 12:13:29;;;;;;;;;;;;;;;;;;5034903;28;19963;-81
2023/09/30 12:15:54;;;;;;;;;;;;;;;;;;5062476;28;19920;-82
2023/09/30 12:18:23;;;;;;;;;;;;;;;;;;5053391;28;19917;-81
2023/09/30 12:20:49;;;;;;;;;;;;;;;;;;5036780;28;20225;-81
2023/09/30 12:23:14;;;;;;;;;;;;;;;;;;5020132;28;20007;-81
2023/09/30 12:25:39;;;;;;;;;;;;;;;;;;5043351;28;19913;-81
2023/09/30 12:28:05;;;;;;;;;;;;;;;;;;5052096;28;19924;-81
2023/09/30 12:30:31;;;;;;;;;;;;;;;;;;5053296;28;19945;-82
2023/09/30 12:32:57;;;;;;;;;;;;;;;;;;5053920;28;19932;-83
2023/09/30 12:35:22;;;;;;;;;;;;;;;;;;5052696;28;19920;-80
2023/09/30 12:37:47;;;;;;;;;;;;;;;;;;5052662;28;19916;-82
2023/09/30 12:40:16;;;;;;;;;;;;;;;;;;5059392;28;19920;-81
2023/09/30 12:42:42;;;;;;;;;;;;;;;;;;5053097;28;19924;-81
2023/09/30 12:45:07;;;;;;;;;;;;;;;;;;5079884;28;19924;-83
2023/09/30 12:47:33;;;;;;;;;;;;;;;;;;5067011;28;19916;-81
2023/09/30 12:49:58;;;;;;;;;;;;;;;;;;5073080;28;19912;-82
2023/09/30 12:52:24;;;;;;;;;;;;;;;;;;5066246;28;19917;-82
2023/09/30 12:54:49;;;;;;;;;;;;;;;;;;5060125;28;20375;-81
2023/09/30 12:57:17;;;;;;;;;;;;;;;;;;5070120;28;19966;-82
2023/09/30 12:59:43;;;;;;;;;;;;;;;;;;5055805;28;19912;-83
2023/09/30 13:02:09;;;;;;;;;;;;;;;;;;5055420;28;20066;-81
2023/09/30 13:04:34;;;;;;;;;;;;;;;;;;5063687;28;19916;-83
2023/09/30 13:07:00;;;;;;;;;;;;;;;;;;5059193;28;19924;-84
2023/09/30 13:09:25;;;;;;;;;;;;;;;;;;5056453;28;19913;-83
2023/09/30 13:11:50;;;;;;;;;;;;;;;;;;5071805;28;19927;-81
2023/09/30 13:14:16;;;;;;;;;;;;;;;;;;5074091;28;19912;-84
2023/09/30 13:16:42;;;;;;;;;;;;;;;;;;5063953;28;19924;-80
2023/09/30 13:19:08;;;;;;;;;;;;;;;;;;5062940;28;19919;-82
2023/09/30 13:21:33;;;;;;;;;;;;;;;;;;5068934;28;19916;-82
2023/09/30 13:23:59;;;;;;;;;;;;;;;;;;5042429;28;20392;-82
2023/09/30 13:26:25;;;;;;;;;;;;;;;;;;5068297;28;20393;-82
2023/09/30 13:28:50;;;;;;;;;;;;;;;;;;5084826;28;20006;-81
2023/09/30 13:31:16;;;;;;;;;;;;;;;;;;5080634;28;20426;-81
2023/09/30 13:33:42;;;;;;;;;;;;;;;;;;5056860;28;20054;-81
2023/09/30 13:36:07;;;;;;;;;;;;;;;;;;5075840;28;19946;-81
2023/09/30 13:38:33;;;;;;;;;;;;;;;;;;5069072;28;19923;-81
2023/09/30 13:41:02;;;;;;;;;;;;;;;;;;5054574;28;20311;-82
2023/09/30 13:43:27;;;;;;;;;;;;;;;;;;5053580;28;19916;-82
2023/09/30 13:45:53;;;;;;;;;;;;;;;;;;5082879;28;19960;-82
2023/09/30 13:48:18;;;;;;;;;;;;;;;;;;5079956;28;19923;-81
2023/09/30 13:50:44;;;;;;;;;;;;;;;;;;5073325;28;20023;-81
2023/09/30 13:53:09;;;;;;;;;;;;;;;;;;5065296;28;20427;-82
2023/09/30 13:55:35;;;;;;;;;;;;;;;;;;5072367;28;20059;-83
2023/09/30 13:58:00;;;;;;;;;;;;;;;;;;5052187;28;19991;-82
2023/09/30 14:00:26;;;;;;;;;;;;;;;;;;5089818;28;19923;-82
2023/09/30 14:02:51;;;;;;;;;;;;;;;;;;5092198;28;19918;-82
2023/09/30 14:05:16;;;;;;;;;;;;;;;;;;5087709;28;19924;-82
2023/09/30 14:07:43;;;;;;;;;;;;;;;;;;5064271;28;19962;-82
2023/09/30 14:10:10;;;;;;;;;;;;;;;;;;5087226;28;20306;-83
2023/09/30 14:12:35;;;;;;;;;;;;;;;;;;5090781;28;20374;-82
2023/09/30 14:15:01;;;;;;;;;;;;;;;;;;5078064;28;19923;-82
2023/09/30 14:17:26;;;;;;;;;;;;;;;;;;5072938;28;19921;-81
2023/09/30 14:19:51;;;;;;;;;;;;;;;;;;5056806;28;20330;-81
2023/09/30 14:22:18;;;;;;;;;;;;;;;;;;5087708;28;19962;-81
2023/09/30 14:24:43;;;;;;;;;;;;;;;;;;5082859;28;20015;-82
2023/09/30 14:27:08;;;;;;;;;;;;;;;;;;5061093;28;20059;-82
2023/09/30 14:29:34;;;;;;;;;;;;;;;;;;5077179;28;19932;-81
2023/09/30 14:31:59;;;;;;;;;;;;;;;;;;5062811;28;20299;-80
2023/09/30 14:34:25;;;;;;;;;;;;;;;;;;5077260;28;19960;-81
2023/09/30 14:36:51;;;;;;;;;;;;;;;;;;5070076;28;20299;-81
2023/09/30 14:39:16;;;;;;;;;;;;;;;;;;5076359;28;19921;-81
2023/09/30 14:41:41;;;;;;;;;;;;;;;;;;5057204;28;19925;-81
2023/09/30 14:44:07;;;;;;;;;;;;;;;;;;5036385;28;19932;-81
2023/09/30 14:46:36;;;;;;;;;;;;;;;;;;5037665;28;19913;-78
2023/09/30 14:49:02;;;;;;;;;;;;;;;;;;5054171;28;19917;-75
2023/09/30 14:51:27;;;;;;;;;;;;;;;;;;5054788;28;19911;-78
2023/09/30 14:53:55;;;;;;;;;;;;;;;;;;5055920;28;19917;-77
2023/09/30 14:56:20;;;;;;;;;;;;;;;;;;5061089;28;20016;-75
2023/09/30 14:58:45;;;;;;;;;;;;;;;;;;5036467;28;19971;-76
2023/09/30 15:01:11;;;;;;;;;;;;;;;;;;5053984;28;19940;-76
2023/09/30 15:03:38;;;;;;;;;;;;;;;;;;5053936;28;19921;-77
2023/09/30 15:06:04;;;;;;;;;;;;;;;;;;5036443;28;19963;-77
2023/09/30 15:08:29;;;;;;;;;;;;;;;;;;5037657;28;20304;-77
2023/09/30 15:10:54;;;;;;;;;;;;;;;;;;5061484;28;19919;-77
2023/09/30 15:13:20;;;;;;;;;;;;;;;;;;5036053;28;20299;-78
2023/09/30 15:15:45;;;;;;;;;;;;;;;;;;5036827;28;19923;-77
2023/09/30 15:18:10;;;;;;;;;;;;;;;;;;5042892;28;19952;-78
2023/09/30 15:20:38;;;;;;;;;;;;;;;;;;5059126;28;19912;-78
2023/09/30 15:23:04;;;;;;;;;;;;;;;;;;5036740;28;20310;-77
2023/09/30 15:25:29;;;;;;;;;;;;;;;;;;5055184;28;19916;-80
2023/09/30 15:27:55;;;;;;;;;;;;;;;;;;5055004;28;19923;-77
